sensor_id;sensor_type;location;lat;lon;timestamp;noise_LAeq;noise_LA_min;noise_LA_max;noise_LA01;noise_LA95
77361;Laerm;66427;51.798;10.954;2023-07-02T00:02:40;30.33;27.88;40.49;;
77361;Laerm;66427;51.798;10.954;2023-07-02T00:05:25;49.26;29.15;65.69;;
77361;Laerm;66427;51.798;10.954;2023-07-02T00:08:33;52.24;28.34;72.44;;
77361;Laerm;66427;51.798;10.954;2023-07-02T00:10:59;31.51;28.02;39.01;;
77361;Laerm;66427;51.798;10.954;2023-07-02T00:13:56;30.50;27.90;36.39;;
77361;Laerm;66427;51.798;10.954;2023-07-02T00:20:08;31.23;28.73;37.30;;
77361;Laerm;66427;51.798;10.954;2023-07-02T00:22:53;32.92;29.88;47.25;;
77361;Laerm;66427;51.798;10.954;2023-07-02T00:28:54;33.87;29.68;47.42;;
77361;Laerm;66427;51.798;10.954;2023-07-02T00:32:03;32.02;29.00;45.42;;
77361;Laerm;66427;51.798;10.954;2023-07-02T00:34:29;33.82;29.68;43.29;;
77361;Laerm;66427;51.798;10.954;2023-07-02T00:37:14;31.33;29.06;41.92;;
77361;Laerm;66427;51.798;10.954;2023-07-02T00:39:46;30.91;27.49;39.94;;
77361;Laerm;66427;51.798;10.954;2023-07-02T00:42:26;29.78;28.01;39.93;;
77361;Laerm;66427;51.798;10.954;2023-07-02T00:44:54;29.32;27.35;34.97;;
77361;Laerm;66427;51.798;10.954;2023-07-02T00:54:21;28.01;27.21;37.41;;
77361;Laerm;66427;51.798;10.954;2023-07-02T01:06:34;28.00;27.16;36.87;;
77361;Laerm;66427;51.798;10.954;2023-07-02T01:09:03;28.39;27.33;34.03;;
77361;Laerm;66427;51.798;10.954;2023-07-02T01:11:46;28.35;27.26;36.27;;
77361;Laerm;66427;51.798;10.954;2023-07-02T01:14:17;29.74;27.21;36.88;;
77361;Laerm;66427;51.798;10.954;2023-07-02T01:16:48;28.31;27.27;36.18;;
77361;Laerm;66427;51.798;10.954;2023-07-02T01:19:48;27.85;27.10;29.68;;
77361;Laerm;66427;51.798;10.954;2023-07-02T01:22:19;28.05;27.16;37.59;;
77361;Laerm;66427;51.798;10.954;2023-07-02T01:24:50;27.97;27.11;38.05;;
77361;Laerm;66427;51.798;10.954;2023-07-02T01:27:44;27.88;27.09;35.80;;
77361;Laerm;66427;51.798;10.954;2023-07-02T01:30:13;28.07;27.17;34.65;;
77361;Laerm;66427;51.798;10.954;2023-07-02T01:33:15;28.65;27.25;37.86;;
77361;Laerm;66427;51.798;10.954;2023-07-02T01:35:52;28.38;27.03;38.65;;
77361;Laerm;66427;51.798;10.954;2023-07-02T01:44:56;33.33;27.31;54.78;;
77361;Laerm;66427;51.798;10.954;2023-07-02T01:47:22;28.26;27.23;39.03;;
77361;Laerm;66427;51.798;10.954;2023-07-02T01:50:27;28.77;27.11;40.37;;
77361;Laerm;66427;51.798;10.954;2023-07-02T01:52:56;29.00;27.48;38.33;;
77361;Laerm;66427;51.798;10.954;2023-07-02T01:55:27;28.59;27.46;33.77;;
77361;Laerm;66427;51.798;10.954;2023-07-02T01:58:23;40.89;28.01;58.19;;
77361;Laerm;66427;51.798;10.954;2023-07-02T02:00:58;33.36;28.24;46.33;;
77361;Laerm;66427;51.798;10.954;2023-07-02T02:07:32;51.30;28.10;64.35;;
77361;Laerm;66427;51.798;10.954;2023-07-02T02:15:09;47.45;28.47;70.30;;
77361;Laerm;66427;51.798;10.954;2023-07-02T02:22:54;51.08;31.40;61.47;;
77361;Laerm;66427;51.798;10.954;2023-07-02T02:29:30;50.87;33.05;61.66;;
77361;Laerm;66427;51.798;10.954;2023-07-02T02:32:28;49.25;31.56;64.55;;
77361;Laerm;66427;51.798;10.954;2023-07-02T02:35:23;45.02;32.19;55.72;;
77361;Laerm;66427;51.798;10.954;2023-07-02T02:38:28;44.57;31.15;57.41;;
77361;Laerm;66427;51.798;10.954;2023-07-02T02:41:53;45.83;31.27;58.69;;
77361;Laerm;66427;51.798;10.954;2023-07-02T02:44:18;44.98;30.08;56.36;;
77361;Laerm;66427;51.798;10.954;2023-07-02T02:47:18;42.84;30.38;55.22;;
77361;Laerm;66427;51.798;10.954;2023-07-02T02:50:05;44.29;29.38;56.98;;
77361;Laerm;66427;51.798;10.954;2023-07-02T02:53:10;41.22;29.81;58.42;;
77361;Laerm;66427;51.798;10.954;2023-07-02T02:56:03;44.40;30.19;57.74;;
77361;Laerm;66427;51.798;10.954;2023-07-02T02:59:14;42.94;28.70;57.34;;
77361;Laerm;66427;51.798;10.954;2023-07-02T03:01:56;44.22;30.11;56.65;;
77361;Laerm;66427;51.798;10.954;2023-07-02T03:04:24;45.26;32.39;56.31;;
77361;Laerm;66427;51.798;10.954;2023-07-02T03:07:21;42.42;31.88;52.53;;
77361;Laerm;66427;51.798;10.954;2023-07-02T03:09:48;42.91;31.59;55.30;;
77361;Laerm;66427;51.798;10.954;2023-07-02T03:12:28;45.52;31.02;56.66;;
77361;Laerm;66427;51.798;10.954;2023-07-02T03:15:15;50.28;31.93;63.98;;
77361;Laerm;66427;51.798;10.954;2023-07-02T03:19:23;46.25;31.01;57.35;;
77361;Laerm;66427;51.798;10.954;2023-07-02T03:22:11;42.88;30.43;56.55;;
77361;Laerm;66427;51.798;10.954;2023-07-02T03:24:59;39.00;29.93;52.11;;
77361;Laerm;66427;51.798;10.954;2023-07-02T03:30:17;42.85;30.14;62.61;;
77361;Laerm;66427;51.798;10.954;2023-07-02T03:33:08;43.19;31.51;55.39;;
77361;Laerm;66427;51.798;10.954;2023-07-02T03:36:32;45.11;30.37;58.13;;
77361;Laerm;66427;51.798;10.954;2023-07-02T03:50:28;43.23;32.22;59.24;;
77361;Laerm;66427;51.798;10.954;2023-07-02T03:53:05;40.45;32.27;51.61;;
77361;Laerm;66427;51.798;10.954;2023-07-02T03:55:41;46.05;32.76;62.64;;
77361;Laerm;66427;51.798;10.954;2023-07-02T03:58:14;42.40;32.52;57.15;;
77361;Laerm;66427;51.798;10.954;2023-07-02T04:01:17;48.13;32.10;64.47;;
77361;Laerm;66427;51.798;10.954;2023-07-02T04:04:19;48.44;31.55;66.62;;
77361;Laerm;66427;51.798;10.954;2023-07-02T04:07:01;38.70;33.35;49.75;;
77361;Laerm;66427;51.798;10.954;2023-07-02T04:09:50;41.00;33.05;56.65;;
77361;Laerm;66427;51.798;10.954;2023-07-02T04:12:29;42.75;33.57;56.69;;
77361;Laerm;66427;51.798;10.954;2023-07-02T04:15:19;48.06;32.21;64.21;;
77361;Laerm;66427;51.798;10.954;2023-07-02T04:18:06;43.69;33.09;56.80;;
77361;Laerm;66427;51.798;10.954;2023-07-02T04:20:31;42.13;31.20;55.41;;
77361;Laerm;66427;51.798;10.954;2023-07-02T04:22:57;44.42;31.30;56.51;;
77361;Laerm;66427;51.798;10.954;2023-07-02T04:25:22;40.40;31.34;50.77;;
77361;Laerm;66427;51.798;10.954;2023-07-02T04:27:48;44.57;30.90;58.10;;
77361;Laerm;66427;51.798;10.954;2023-07-02T04:30:14;44.51;31.20;58.84;;
77361;Laerm;66427;51.798;10.954;2023-07-02T04:32:39;45.76;30.54;61.85;;
77361;Laerm;66427;51.798;10.954;2023-07-02T04:35:05;45.72;31.42;59.80;;
77361;Laerm;66427;51.798;10.954;2023-07-02T04:37:31;46.71;30.61;61.90;;
77361;Laerm;66427;51.798;10.954;2023-07-02T04:39:56;40.02;30.92;51.41;;
77361;Laerm;66427;51.798;10.954;2023-07-02T04:42:21;43.80;29.89;56.42;;
77361;Laerm;66427;51.798;10.954;2023-07-02T04:44:47;38.82;30.75;57.72;;
77361;Laerm;66427;51.798;10.954;2023-07-02T04:47:12;38.44;30.75;47.42;;
77361;Laerm;66427;51.798;10.954;2023-07-02T04:49:40;45.06;32.45;56.71;;
77361;Laerm;66427;51.798;10.954;2023-07-02T04:52:11;40.49;30.97;52.32;;
77361;Laerm;66427;51.798;10.954;2023-07-02T04:57:30;49.50;32.24;65.96;;
77361;Laerm;66427;51.798;10.954;2023-07-02T05:04:04;46.93;30.78;62.68;;
77361;Laerm;66427;51.798;10.954;2023-07-02T05:06:33;48.06;32.48;65.94;;
77361;Laerm;66427;51.798;10.954;2023-07-02T05:08:59;53.11;33.95;68.64;;
77361;Laerm;66427;51.798;10.954;2023-07-02T05:11:48;37.61;31.27;48.06;;
77361;Laerm;66427;51.798;10.954;2023-07-02T05:14:22;49.57;30.75;65.69;;
77361;Laerm;66427;51.798;10.954;2023-07-02T05:16:48;51.89;31.99;68.11;;
77361;Laerm;66427;51.798;10.954;2023-07-02T05:19:17;55.26;31.10;72.38;;
77361;Laerm;66427;51.798;10.954;2023-07-02T05:22:19;38.63;30.47;52.42;;
77361;Laerm;66427;51.798;10.954;2023-07-02T05:25:02;37.61;30.25;53.40;;
77361;Laerm;66427;51.798;10.954;2023-07-02T05:27:54;40.62;30.60;52.56;;
77361;Laerm;66427;51.798;10.954;2023-07-02T05:30:40;46.95;30.40;60.04;;
77361;Laerm;66427;51.798;10.954;2023-07-02T05:33:07;41.92;29.99;53.76;;
77361;Laerm;66427;51.798;10.954;2023-07-02T05:39:10;44.44;31.17;61.65;;
77361;Laerm;66427;51.798;10.954;2023-07-02T05:41:36;43.35;31.84;53.43;;
77361;Laerm;66427;51.798;10.954;2023-07-02T05:44:19;42.66;31.20;52.95;;
77361;Laerm;66427;51.798;10.954;2023-07-02T05:46:45;50.55;31.71;65.13;;
77361;Laerm;66427;51.798;10.954;2023-07-02T05:49:11;49.83;31.23;63.04;;
77361;Laerm;66427;51.798;10.954;2023-07-02T05:51:56;46.16;30.08;60.55;;
77361;Laerm;66427;51.798;10.954;2023-07-02T05:54:49;46.13;30.48;59.42;;
77361;Laerm;66427;51.798;10.954;2023-07-02T05:57:15;50.24;32.00;65.48;;
77361;Laerm;66427;51.798;10.954;2023-07-02T05:59:41;46.62;31.96;58.40;;
77361;Laerm;66427;51.798;10.954;2023-07-02T06:02:22;43.56;31.74;58.40;;
77361;Laerm;66427;51.798;10.954;2023-07-02T06:04:47;46.97;30.63;61.91;;
77361;Laerm;66427;51.798;10.954;2023-07-02T06:07:13;50.53;30.91;66.09;;
77361;Laerm;66427;51.798;10.954;2023-07-02T06:09:38;48.81;32.45;61.01;;
77361;Laerm;66427;51.798;10.954;2023-07-02T06:12:06;42.87;31.87;53.79;;
77361;Laerm;66427;51.798;10.954;2023-07-02T06:14:54;40.67;32.05;51.49;;
77361;Laerm;66427;51.798;10.954;2023-07-02T06:17:20;40.39;32.05;55.64;;
77361;Laerm;66427;51.798;10.954;2023-07-02T06:19:59;44.15;31.85;62.25;;
77361;Laerm;66427;51.798;10.954;2023-07-02T06:22:24;50.64;32.02;63.91;;
77361;Laerm;66427;51.798;10.954;2023-07-02T06:24:50;50.42;32.01;65.77;;
77361;Laerm;66427;51.798;10.954;2023-07-02T06:27:15;41.60;31.85;54.30;;
77361;Laerm;66427;51.798;10.954;2023-07-02T06:29:40;42.16;32.76;60.47;;
77361;Laerm;66427;51.798;10.954;2023-07-02T06:32:06;50.01;35.95;65.32;;
77361;Laerm;66427;51.798;10.954;2023-07-02T06:34:39;40.51;33.31;54.99;;
77361;Laerm;66427;51.798;10.954;2023-07-02T06:37:05;40.86;33.63;52.15;;
77361;Laerm;66427;51.798;10.954;2023-07-02T06:39:36;41.55;34.23;49.29;;
77361;Laerm;66427;51.798;10.954;2023-07-02T06:42:07;41.75;34.47;60.66;;
77361;Laerm;66427;51.798;10.954;2023-07-02T06:48:21;47.39;34.69;61.78;;
77361;Laerm;66427;51.798;10.954;2023-07-02T06:51:20;44.19;34.40;57.06;;
77361;Laerm;66427;51.798;10.954;2023-07-02T06:53:58;50.32;33.72;67.15;;
77361;Laerm;66427;51.798;10.954;2023-07-02T06:56:44;41.85;35.27;60.41;;
77361;Laerm;66427;51.798;10.954;2023-07-02T06:59:10;43.05;33.54;55.65;;
77361;Laerm;66427;51.798;10.954;2023-07-02T07:02:01;43.03;34.92;55.40;;
77361;Laerm;66427;51.798;10.954;2023-07-02T07:04:37;53.29;34.54;71.10;;
77361;Laerm;66427;51.798;10.954;2023-07-02T07:07:47;45.51;37.50;59.76;;
77361;Laerm;66427;51.798;10.954;2023-07-02T07:10:30;48.08;37.62;63.09;;
77361;Laerm;66427;51.798;10.954;2023-07-02T07:13:00;54.32;38.56;66.13;;
77361;Laerm;66427;51.798;10.954;2023-07-02T07:15:44;49.33;36.51;68.73;;
77361;Laerm;66427;51.798;10.954;2023-07-02T07:18:30;47.50;35.29;63.07;;
77361;Laerm;66427;51.798;10.954;2023-07-02T07:24:25;49.89;35.10;65.84;;
77361;Laerm;66427;51.798;10.954;2023-07-02T07:30:51;45.55;34.06;61.11;;
77361;Laerm;66427;51.798;10.954;2023-07-02T07:33:17;50.79;38.06;64.59;;
77361;Laerm;66427;51.798;10.954;2023-07-02T07:36:27;52.00;34.16;68.15;;
77361;Laerm;66427;51.798;10.954;2023-07-02T07:38:53;61.92;35.83;78.11;;
77361;Laerm;66427;51.798;10.954;2023-07-02T07:41:21;49.12;32.95;65.37;;
77361;Laerm;66427;51.798;10.954;2023-07-02T07:43:47;54.81;35.71;68.20;;
77361;Laerm;66427;51.798;10.954;2023-07-02T07:46:12;51.52;35.38;64.10;;
77361;Laerm;66427;51.798;10.954;2023-07-02T07:48:39;53.23;33.94;66.31;;
77361;Laerm;66427;51.798;10.954;2023-07-02T07:51:09;49.46;32.59;65.99;;
77361;Laerm;66427;51.798;10.954;2023-07-02T07:54:05;52.84;32.77;71.15;;
77361;Laerm;66427;51.798;10.954;2023-07-02T07:56:43;63.50;34.76;83.55;;
77361;Laerm;66427;51.798;10.954;2023-07-02T07:59:13;53.33;40.09;63.63;;
77361;Laerm;66427;51.798;10.954;2023-07-02T08:02:16;51.82;32.39;66.69;;
77361;Laerm;66427;51.798;10.954;2023-07-02T08:05:02;53.04;35.19;65.62;;
77361;Laerm;66427;51.798;10.954;2023-07-02T08:07:43;51.13;35.85;63.32;;
77361;Laerm;66427;51.798;10.954;2023-07-02T08:10:48;50.15;36.99;61.54;;
77361;Laerm;66427;51.798;10.954;2023-07-02T08:13:25;44.27;35.27;57.20;;
77361;Laerm;66427;51.798;10.954;2023-07-02T08:15:50;52.19;35.85;66.60;;
77361;Laerm;66427;51.798;10.954;2023-07-02T08:18:15;49.73;34.81;61.48;;
77361;Laerm;66427;51.798;10.954;2023-07-02T08:20:41;49.65;35.31;66.87;;
77361;Laerm;66427;51.798;10.954;2023-07-02T08:23:31;43.94;37.84;57.69;;
77361;Laerm;66427;51.798;10.954;2023-07-02T08:25:57;47.86;35.94;62.39;;
77361;Laerm;66427;51.798;10.954;2023-07-02T08:28:22;43.26;34.79;57.84;;
77361;Laerm;66427;51.798;10.954;2023-07-02T08:30:48;55.41;35.97;74.48;;
77361;Laerm;66427;51.798;10.954;2023-07-02T08:33:13;51.40;43.21;59.86;;
77361;Laerm;66427;51.798;10.954;2023-07-02T08:35:52;51.77;41.34;66.73;;
77361;Laerm;66427;51.798;10.954;2023-07-02T08:38:20;51.53;40.52;66.55;;
77361;Laerm;66427;51.798;10.954;2023-07-02T08:40:52;53.38;45.87;62.99;;
77361;Laerm;66427;51.798;10.954;2023-07-02T08:43:21;45.05;39.13;60.41;;
77361;Laerm;66427;51.798;10.954;2023-07-02T08:45:47;48.41;40.02;58.46;;
77361;Laerm;66427;51.798;10.954;2023-07-02T08:48:33;54.69;42.86;67.28;;
77361;Laerm;66427;51.798;10.954;2023-07-02T08:50:59;55.20;41.60;65.63;;
77361;Laerm;66427;51.798;10.954;2023-07-02T08:53:24;53.65;40.10;67.82;;
77361;Laerm;66427;51.798;10.954;2023-07-02T08:55:54;54.48;41.81;67.80;;
77361;Laerm;66427;51.798;10.954;2023-07-02T08:58:20;51.05;40.03;62.26;;
77361;Laerm;66427;51.798;10.954;2023-07-02T09:03:49;51.90;37.65;64.62;;
77361;Laerm;66427;51.798;10.954;2023-07-02T09:06:16;58.80;46.28;75.50;;
77361;Laerm;66427;51.798;10.954;2023-07-02T09:08:42;53.90;39.43;67.40;;
77361;Laerm;66427;51.798;10.954;2023-07-02T09:11:08;57.21;39.06;69.20;;
77361;Laerm;66427;51.798;10.954;2023-07-02T09:13:47;55.11;39.97;68.53;;
77361;Laerm;66427;51.798;10.954;2023-07-02T09:16:22;50.99;41.01;61.93;;
77361;Laerm;66427;51.798;10.954;2023-07-02T09:18:57;52.82;37.79;65.24;;
77361;Laerm;66427;51.798;10.954;2023-07-02T09:21:22;52.36;36.89;66.37;;
77361;Laerm;66427;51.798;10.954;2023-07-02T09:23:48;52.76;38.01;63.68;;
77361;Laerm;66427;51.798;10.954;2023-07-02T09:26:22;49.60;38.31;65.96;;
77361;Laerm;66427;51.798;10.954;2023-07-02T09:29:02;56.77;40.23;67.29;;
77361;Laerm;66427;51.798;10.954;2023-07-02T09:31:27;54.48;40.39;68.14;;
77361;Laerm;66427;51.798;10.954;2023-07-02T09:34:02;60.61;39.81;77.34;;
77361;Laerm;66427;51.798;10.954;2023-07-02T09:36:27;53.88;38.40;68.80;;
77361;Laerm;66427;51.798;10.954;2023-07-02T09:38:53;49.28;36.28;62.00;;
77361;Laerm;66427;51.798;10.954;2023-07-02T09:41:18;53.20;37.49;67.52;;
77361;Laerm;66427;51.798;10.954;2023-07-02T09:43:43;49.33;36.91;63.45;;
77361;Laerm;66427;51.798;10.954;2023-07-02T09:46:09;54.97;37.54;66.04;;
77361;Laerm;66427;51.798;10.954;2023-07-02T09:48:35;54.58;37.30;68.72;;
77361;Laerm;66427;51.798;10.954;2023-07-02T09:51:00;54.48;40.15;65.84;;
77361;Laerm;66427;51.798;10.954;2023-07-02T09:53:50;52.63;41.34;65.88;;
77361;Laerm;66427;51.798;10.954;2023-07-02T10:00:15;55.25;48.05;69.89;;
77361;Laerm;66427;51.798;10.954;2023-07-02T10:13:44;54.21;41.82;66.83;;
77361;Laerm;66427;51.798;10.954;2023-07-02T10:16:11;51.37;39.38;64.33;;
77361;Laerm;66427;51.798;10.954;2023-07-02T10:18:36;55.24;41.38;76.17;;
77361;Laerm;66427;51.798;10.954;2023-07-02T10:24:38;48.00;39.16;66.98;;
77361;Laerm;66427;51.798;10.954;2023-07-02T10:31:18;55.21;42.36;67.91;;
77361;Laerm;66427;51.798;10.954;2023-07-02T10:34:02;56.63;41.93;67.54;;
77361;Laerm;66427;51.798;10.954;2023-07-02T10:37:17;52.11;40.53;65.77;;
77361;Laerm;66427;51.798;10.954;2023-07-02T10:42:47;49.19;38.34;61.33;;
77361;Laerm;66427;51.798;10.954;2023-07-02T10:45:20;54.00;41.40;67.38;;
77361;Laerm;66427;51.798;10.954;2023-07-02T10:48:54;53.46;37.62;65.31;;
77361;Laerm;66427;51.798;10.954;2023-07-02T10:52:13;47.89;38.61;62.04;;
77361;Laerm;66427;51.798;10.954;2023-07-02T10:57:07;44.60;36.92;58.95;;
77361;Laerm;66427;51.798;10.954;2023-07-02T10:59:33;55.06;36.81;70.92;;
77361;Laerm;66427;51.798;10.954;2023-07-02T11:02:02;53.34;36.96;65.37;;
77361;Laerm;66427;51.798;10.954;2023-07-02T11:07:48;50.57;42.52;64.48;;
77361;Laerm;66427;51.798;10.954;2023-07-02T11:10:42;49.49;40.76;64.15;;
77361;Laerm;66427;51.798;10.954;2023-07-02T11:13:17;54.00;42.13;65.94;;
77361;Laerm;66427;51.798;10.954;2023-07-02T11:15:43;50.07;40.33;65.22;;
77361;Laerm;66427;51.798;10.954;2023-07-02T11:18:12;55.57;40.29;69.49;;
77361;Laerm;66427;51.798;10.954;2023-07-02T11:20:38;43.25;37.63;51.93;;
77361;Laerm;66427;51.798;10.954;2023-07-02T11:23:03;59.81;36.11;81.52;;
77361;Laerm;66427;51.798;10.954;2023-07-02T11:25:28;50.94;38.67;68.47;;
77361;Laerm;66427;51.798;10.954;2023-07-02T11:28:03;49.85;37.91;63.96;;
77361;Laerm;66427;51.798;10.954;2023-07-02T11:30:29;52.77;39.11;65.69;;
77361;Laerm;66427;51.798;10.954;2023-07-02T11:32:54;52.88;38.74;64.27;;
77361;Laerm;66427;51.798;10.954;2023-07-02T11:35:20;57.08;44.40;72.94;;
77361;Laerm;66427;51.798;10.954;2023-07-02T11:37:46;52.59;41.35;66.26;;
77361;Laerm;66427;51.798;10.954;2023-07-02T11:40:11;51.79;41.92;72.78;;
77361;Laerm;66427;51.798;10.954;2023-07-02T11:42:37;57.34;41.23;70.60;;
77361;Laerm;66427;51.798;10.954;2023-07-02T11:45:03;54.30;38.84;65.38;;
77361;Laerm;66427;51.798;10.954;2023-07-02T11:47:28;55.67;39.53;67.51;;
77361;Laerm;66427;51.798;10.954;2023-07-02T11:49:53;48.22;39.43;61.33;;
77361;Laerm;66427;51.798;10.954;2023-07-02T11:56:09;54.67;44.72;69.00;;
77361;Laerm;66427;51.798;10.954;2023-07-02T12:02:32;51.13;42.51;62.61;;
77361;Laerm;66427;51.798;10.954;2023-07-02T12:05:14;52.54;40.24;65.60;;
77361;Laerm;66427;51.798;10.954;2023-07-02T12:08:40;51.88;39.56;63.99;;
77361;Laerm;66427;51.798;10.954;2023-07-02T12:11:39;51.13;40.50;62.77;;
77361;Laerm;66427;51.798;10.954;2023-07-02T12:14:24;49.47;39.78;64.02;;
77361;Laerm;66427;51.798;10.954;2023-07-02T12:20:58;53.06;42.26;65.38;;
77361;Laerm;66427;51.798;10.954;2023-07-02T12:23:31;53.95;42.24;63.89;;
77361;Laerm;66427;51.798;10.954;2023-07-02T12:29:57;54.97;41.23;67.84;;
77361;Laerm;66427;51.798;10.954;2023-07-02T12:42:41;52.84;40.64;64.44;;
77361;Laerm;66427;51.798;10.954;2023-07-02T12:45:25;49.94;41.67;60.86;;
77361;Laerm;66427;51.798;10.954;2023-07-02T12:48:31;48.43;37.84;62.01;;
77361;Laerm;66427;51.798;10.954;2023-07-02T12:51:00;46.65;38.17;61.42;;
77361;Laerm;66427;51.798;10.954;2023-07-02T12:53:27;51.10;38.42;63.83;;
77361;Laerm;66427;51.798;10.954;2023-07-02T12:56:28;44.31;38.27;61.14;;
77361;Laerm;66427;51.798;10.954;2023-07-02T12:59:05;52.58;41.13;65.62;;
77361;Laerm;66427;51.798;10.954;2023-07-02T13:01:56;59.07;41.23;71.79;;
77361;Laerm;66427;51.798;10.954;2023-07-02T13:04:40;51.38;38.79;65.16;;
77361;Laerm;66427;51.798;10.954;2023-07-02T13:07:40;53.23;40.80;67.24;;
77361;Laerm;66427;51.798;10.954;2023-07-02T13:10:07;50.43;40.01;60.72;;
77361;Laerm;66427;51.798;10.954;2023-07-02T13:13:06;51.38;40.52;63.88;;
77361;Laerm;66427;51.798;10.954;2023-07-02T13:20:02;52.37;38.53;66.77;;
77361;Laerm;66427;51.798;10.954;2023-07-02T13:22:29;58.79;42.16;70.88;;
77361;Laerm;66427;51.798;10.954;2023-07-02T13:28:00;51.75;41.88;69.15;;
77361;Laerm;66427;51.798;10.954;2023-07-02T13:31:25;52.20;39.11;64.96;;
77361;Laerm;66427;51.798;10.954;2023-07-02T13:37:19;54.60;38.19;68.11;;
77361;Laerm;66427;51.798;10.954;2023-07-02T13:39:48;53.81;42.73;66.50;;
77361;Laerm;66427;51.798;10.954;2023-07-02T13:42:23;49.85;39.40;63.91;;
77361;Laerm;66427;51.798;10.954;2023-07-02T13:45:25;53.32;40.24;69.83;;
77361;Laerm;66427;51.798;10.954;2023-07-02T13:48:11;51.72;41.78;65.99;;
77361;Laerm;66427;51.798;10.954;2023-07-02T13:50:49;54.40;39.26;66.69;;
77361;Laerm;66427;51.798;10.954;2023-07-02T13:53:43;51.93;37.07;64.05;;
77361;Laerm;66427;51.798;10.954;2023-07-02T14:03:21;48.37;38.89;65.17;;
77361;Laerm;66427;51.798;10.954;2023-07-02T14:06:24;49.82;39.64;60.85;;
77361;Laerm;66427;51.798;10.954;2023-07-02T14:09:31;66.32;40.47;83.47;;
77361;Laerm;66427;51.798;10.954;2023-07-02T14:11:59;57.15;42.95;83.95;;
77361;Laerm;66427;51.798;10.954;2023-07-02T14:17:54;51.91;39.42;67.88;;
77361;Laerm;66427;51.798;10.954;2023-07-02T14:20:33;49.57;39.10;64.44;;
77361;Laerm;66427;51.798;10.954;2023-07-02T14:23:24;51.57;39.76;64.35;;
77361;Laerm;66427;51.798;10.954;2023-07-02T14:29:17;51.65;37.93;71.09;;
77361;Laerm;66427;51.798;10.954;2023-07-02T14:32:06;45.90;37.14;55.20;;
77361;Laerm;66427;51.798;10.954;2023-07-02T14:35:02;54.59;42.76;68.13;;
77361;Laerm;66427;51.798;10.954;2023-07-02T14:38:50;57.87;46.25;72.45;;
77361;Laerm;66427;51.798;10.954;2023-07-02T14:51:05;53.78;40.62;64.58;;
77361;Laerm;66427;51.798;10.954;2023-07-02T15:05:05;53.88;37.48;69.05;;
77361;Laerm;66427;51.798;10.954;2023-07-02T15:07:57;54.99;39.53;66.50;;
77361;Laerm;66427;51.798;10.954;2023-07-02T15:10:51;52.51;37.64;65.40;;
77361;Laerm;66427;51.798;10.954;2023-07-02T15:13:53;46.82;35.94;60.91;;
77361;Laerm;66427;51.798;10.954;2023-07-02T15:20:35;51.84;38.06;66.34;;
77361;Laerm;66427;51.798;10.954;2023-07-02T15:26:39;55.84;39.07;65.58;;
77361;Laerm;66427;51.798;10.954;2023-07-02T15:30:11;56.98;35.96;68.93;;
77361;Laerm;66427;51.798;10.954;2023-07-02T15:33:24;56.24;37.25;66.74;;
77361;Laerm;66427;51.798;10.954;2023-07-02T15:36:11;56.59;39.76;68.58;;
77361;Laerm;66427;51.798;10.954;2023-07-02T15:39:01;58.40;37.26;74.51;;
77361;Laerm;66427;51.798;10.954;2023-07-02T15:42:11;57.41;36.42;68.41;;
77361;Laerm;66427;51.798;10.954;2023-07-02T15:44:53;56.48;41.16;67.67;;
77361;Laerm;66427;51.798;10.954;2023-07-02T15:48:01;54.79;38.48;69.36;;
77361;Laerm;66427;51.798;10.954;2023-07-02T15:51:17;53.99;37.09;66.41;;
77361;Laerm;66427;51.798;10.954;2023-07-02T15:54:26;53.81;39.24;67.58;;
77361;Laerm;66427;51.798;10.954;2023-07-02T15:57:58;47.53;40.09;57.96;;
77361;Laerm;66427;51.798;10.954;2023-07-02T16:00:23;51.91;39.70;64.69;;
77361;Laerm;66427;51.798;10.954;2023-07-02T16:18:59;56.48;36.78;76.58;;
77361;Laerm;66427;51.798;10.954;2023-07-02T16:21:37;53.89;35.90;66.21;;
77361;Laerm;66427;51.798;10.954;2023-07-02T16:24:08;55.96;34.51;70.55;;
77361;Laerm;66427;51.798;10.954;2023-07-02T16:26:59;50.82;37.65;67.42;;
77361;Laerm;66427;51.798;10.954;2023-07-02T16:29:28;54.08;36.41;66.17;;
77361;Laerm;66427;51.798;10.954;2023-07-02T16:32:10;52.47;37.59;66.00;;
77361;Laerm;66427;51.798;10.954;2023-07-02T16:34:55;49.76;38.55;64.17;;
77361;Laerm;66427;51.798;10.954;2023-07-02T16:37:25;52.71;38.61;64.64;;
77361;Laerm;66427;51.798;10.954;2023-07-02T16:40:15;54.67;40.04;69.95;;
77361;Laerm;66427;51.798;10.954;2023-07-02T16:43:15;45.19;35.58;66.19;;
77361;Laerm;66427;51.798;10.954;2023-07-02T16:46:02;49.80;35.34;62.09;;
77361;Laerm;66427;51.798;10.954;2023-07-02T16:48:40;48.24;37.99;62.18;;
77361;Laerm;66427;51.798;10.954;2023-07-02T16:51:12;51.53;37.69;65.84;;
77361;Laerm;66427;51.798;10.954;2023-07-02T16:58:17;49.44;34.40;66.68;;
77361;Laerm;66427;51.798;10.954;2023-07-02T17:00:51;48.33;34.59;60.73;;
77361;Laerm;66427;51.798;10.954;2023-07-02T17:04:08;50.40;33.52;65.01;;
77361;Laerm;66427;51.798;10.954;2023-07-02T17:06:53;46.16;34.85;63.96;;
77361;Laerm;66427;51.798;10.954;2023-07-02T17:09:40;46.35;37.05;60.43;;
77361;Laerm;66427;51.798;10.954;2023-07-02T17:12:46;51.27;35.00;66.27;;
77361;Laerm;66427;51.798;10.954;2023-07-02T17:15:27;57.68;36.17;75.58;;
77361;Laerm;66427;51.798;10.954;2023-07-02T17:18:11;50.77;33.69;65.76;;
77361;Laerm;66427;51.798;10.954;2023-07-02T17:20:36;48.35;32.78;64.29;;
77361;Laerm;66427;51.798;10.954;2023-07-02T17:23:22;43.17;34.73;64.06;;
77361;Laerm;66427;51.798;10.954;2023-07-02T17:25:52;39.01;32.33;48.81;;
77361;Laerm;66427;51.798;10.954;2023-07-02T17:28:27;52.89;34.09;66.00;;
77361;Laerm;66427;51.798;10.954;2023-07-02T17:31:00;54.97;35.34;70.01;;
77361;Laerm;66427;51.798;10.954;2023-07-02T17:34:04;53.17;37.92;71.44;;
77361;Laerm;66427;51.798;10.954;2023-07-02T17:40:45;48.94;36.43;62.43;;
77361;Laerm;66427;51.798;10.954;2023-07-02T17:44:10;48.56;35.43;63.01;;
77361;Laerm;66427;51.798;10.954;2023-07-02T17:47:21;51.58;34.97;64.48;;
77361;Laerm;66427;51.798;10.954;2023-07-02T17:53:44;53.74;34.49;70.78;;
77361;Laerm;66427;51.798;10.954;2023-07-02T17:56:16;48.86;34.38;64.73;;
77361;Laerm;66427;51.798;10.954;2023-07-02T17:59:20;59.56;35.89;81.23;;
77361;Laerm;66427;51.798;10.954;2023-07-02T18:02:47;52.48;35.18;70.38;;
77361;Laerm;66427;51.798;10.954;2023-07-02T18:05:38;40.07;33.80;52.70;;
77361;Laerm;66427;51.798;10.954;2023-07-02T18:12:11;56.74;34.33;70.86;;
77361;Laerm;66427;51.798;10.954;2023-07-02T18:15:22;59.58;35.31;77.98;;
77361;Laerm;66427;51.798;10.954;2023-07-02T18:18:36;64.13;35.33;90.68;;
77361;Laerm;66427;51.798;10.954;2023-07-02T18:21:50;50.43;32.92;67.20;;
77361;Laerm;66427;51.798;10.954;2023-07-02T18:24:58;56.25;32.30;72.26;;
77361;Laerm;66427;51.798;10.954;2023-07-02T18:27:27;46.67;32.43;59.39;;
77361;Laerm;66427;51.798;10.954;2023-07-02T18:30:23;51.24;34.69;69.86;;
77361;Laerm;66427;51.798;10.954;2023-07-02T18:42:46;51.19;31.92;65.78;;
77361;Laerm;66427;51.798;10.954;2023-07-02T18:48:22;46.54;32.20;60.37;;